createdAt,value
2022-08-19T00:02:08.934Z,5.13
2022-08-19T00:04:39.154Z,5.72
2022-08-19T00:07:09.369Z,5.18
2022-08-19T00:16:42.097Z,5.28
2022-08-19T00:19:10.076Z,4.85
2022-08-19T00:21:40.316Z,4.55
2022-08-19T00:24:11.537Z,5.15
2022-08-19T00:26:43.038Z,4.82
2022-08-19T00:29:17.431Z,5.25
2022-08-19T00:34:37.688Z,4.65
2022-08-19T00:37:09.332Z,4.93
2022-08-19T00:39:38.715Z,5.07
2022-08-19T00:42:10.973Z,4.67
2022-08-19T00:44:39.499Z,5.18
2022-08-19T00:47:14.128Z,5.30
2022-08-19T00:49:52.628Z,6.03
2022-08-19T00:55:12.826Z,4.90
2022-08-19T00:57:42.960Z,4.63
2022-08-19T01:00:22.695Z,4.45
2022-08-19T01:02:50.887Z,4.80
2022-08-19T01:05:27.671Z,4.70
2022-08-19T01:07:58.471Z,4.90
2022-08-19T01:16:11.265Z,4.38
2022-08-19T01:18:42.385Z,4.30
2022-08-19T01:21:23.073Z,4.75
2022-08-19T01:23:52.836Z,5.05
2022-08-19T01:26:25.283Z,5.10
2022-08-19T01:29:00.907Z,5.00
2022-08-19T01:31:33.547Z,4.88
2022-08-19T01:37:24.932Z,4.65
2022-08-19T01:39:55.158Z,4.55
2022-08-19T01:42:30.568Z,5.07
2022-08-19T01:44:59.453Z,5.03
2022-08-19T01:47:29.345Z,4.50
2022-08-19T01:49:58.653Z,4.35
2022-08-19T01:52:30.219Z,4.95
2022-08-19T02:00:00.905Z,5.43
2022-08-19T02:02:40.233Z,4.30
2022-08-19T02:05:13.960Z,4.38
2022-08-19T02:07:42.292Z,4.85
2022-08-19T02:10:16.723Z,3.60
2022-08-19T02:12:50.367Z,3.88
2022-08-19T02:15:21.499Z,4.72
2022-08-19T02:23:00.310Z,4.07
2022-08-19T02:25:29.526Z,3.70
2022-08-19T02:28:00.280Z,3.70
2022-08-19T02:30:29.853Z,3.90
2022-08-19T02:33:01.669Z,4.00
2022-08-19T02:35:32.790Z,3.47
2022-08-19T02:38:19.181Z,3.90
2022-08-19T02:44:29.716Z,3.63
2022-08-19T02:46:58.647Z,3.72
2022-08-19T02:49:29.300Z,3.43
2022-08-19T02:52:02.046Z,3.67
2022-08-19T02:54:29.637Z,3.55
2022-08-19T02:56:58.513Z,3.50
2022-08-19T02:59:30.757Z,3.20
2022-08-19T03:06:14.758Z,3.30
2022-08-19T03:08:52.017Z,3.60
2022-08-19T03:11:29.198Z,3.50
2022-08-19T03:13:59.256Z,3.67
2022-08-19T03:16:33.566Z,3.05
2022-08-19T03:19:02.753Z,3.50
2022-08-19T03:21:33.071Z,3.72
2022-08-19T03:32:08.742Z,3.67
2022-08-19T03:34:55.293Z,3.47
2022-08-19T03:37:23.350Z,3.42
2022-08-19T03:39:58.855Z,3.75
2022-08-19T03:42:38.374Z,3.90
2022-08-19T03:45:15.648Z,4.53
2022-08-19T03:47:43.074Z,3.60
2022-08-19T03:50:12.684Z,3.35
2022-08-19T03:55:20.664Z,3.80
2022-08-19T03:57:49.773Z,4.10
2022-08-19T04:00:18.855Z,4.30
2022-08-19T04:02:58.718Z,3.88
2022-08-19T04:05:30.301Z,3.38
2022-08-19T04:07:59.883Z,3.50
2022-08-19T04:10:29.990Z,3.60
2022-08-19T04:12:59.793Z,3.95
2022-08-19T04:20:50.565Z,3.90
2022-08-19T04:23:20.109Z,3.42
2022-08-19T04:25:49.805Z,3.83
2022-08-19T04:28:19.481Z,4.38
2022-08-19T04:30:51.362Z,4.00
2022-08-19T04:33:26.697Z,4.50
2022-08-19T04:35:58.928Z,4.50
2022-08-19T04:41:30.640Z,4.25
2022-08-19T04:44:04.112Z,4.35
2022-08-19T04:46:40.170Z,4.38
2022-08-19T04:49:29.648Z,4.35
2022-08-19T04:51:58.519Z,4.30
2022-08-19T04:54:38.878Z,4.72
2022-08-19T05:00:50.792Z,3.90
2022-08-19T05:03:21.316Z,3.90
2022-08-19T05:05:50.486Z,4.28
2022-08-19T05:08:30.655Z,4.20
2022-08-19T05:11:00.575Z,4.20
2022-08-19T05:13:32.318Z,4.15
2022-08-19T05:16:00.885Z,3.92
2022-08-19T05:23:56.659Z,4.10
2022-08-19T05:26:30.110Z,4.28
2022-08-19T05:29:00.644Z,4.13
2022-08-19T05:31:30.333Z,4.15
2022-08-19T05:33:59.680Z,3.83
2022-08-19T05:36:30.229Z,4.43
2022-08-19T05:39:00.055Z,4.20
2022-08-19T05:44:10.641Z,4.15
2022-08-19T05:46:40.536Z,4.75
2022-08-19T05:49:09.739Z,4.18
2022-08-19T05:51:43.121Z,4.57
2022-08-19T05:54:14.158Z,4.00
2022-08-19T05:56:43.511Z,4.38
2022-08-19T05:59:12.491Z,4.30
2022-08-19T06:10:00.030Z,4.32
2022-08-19T06:12:33.915Z,4.75
2022-08-19T06:15:06.157Z,4.18
2022-08-19T06:17:36.047Z,4.40
2022-08-19T06:20:12.887Z,4.63
2022-08-19T06:22:50.199Z,4.50
2022-08-19T06:28:15.927Z,4.50
2022-08-19T06:30:50.092Z,4.32
2022-08-19T06:33:19.662Z,4.65
2022-08-19T06:35:49.895Z,5.07
2022-08-19T06:38:19.253Z,4.30
2022-08-19T06:40:50.367Z,4.65
2022-08-19T06:43:20.465Z,5.13
2022-08-19T06:51:00.611Z,4.65
2022-08-19T06:53:32.148Z,4.50
2022-08-19T06:56:03.538Z,4.78
2022-08-19T06:58:33.016Z,4.88
2022-08-19T07:01:05.755Z,4.68
2022-08-19T07:03:40.106Z,5.13
2022-08-19T07:06:32.645Z,5.10
2022-08-19T07:14:06.403Z,4.75
2022-08-19T07:16:37.300Z,4.97
2022-08-19T07:19:15.913Z,4.75
2022-08-19T07:21:50.472Z,4.80
2022-08-19T07:24:33.555Z,5.00
2022-08-19T07:27:15.093Z,5.05
2022-08-19T07:29:43.185Z,5.43
2022-08-19T07:36:43.233Z,5.70
2022-08-19T07:39:19.713Z,5.80
2022-08-19T07:41:51.469Z,5.32
2022-08-19T07:44:21.542Z,4.85
2022-08-19T07:46:55.153Z,4.72
2022-08-19T07:49:26.450Z,6.05
2022-08-19T07:52:10.041Z,4.80
2022-08-19T07:59:50.750Z,5.10
2022-08-19T08:02:19.913Z,5.45
2022-08-19T08:05:09.756Z,5.30
2022-08-19T08:08:00.191Z,5.10
2022-08-19T08:13:09.673Z,5.18
2022-08-19T08:15:42.889Z,5.35
2022-08-19T08:26:03.192Z,5.00
2022-08-19T08:28:30.819Z,4.95
2022-08-19T08:31:02.956Z,4.90
2022-08-19T08:33:39.264Z,4.53
2022-08-19T08:36:12.473Z,5.78
2022-08-19T08:38:42.525Z,5.28
2022-08-19T08:41:30.188Z,5.07
2022-08-19T08:48:54.329Z,5.75
2022-08-19T08:51:35.171Z,5.13
2022-08-19T08:54:13.981Z,5.07
2022-08-19T08:56:44.411Z,5.28
2022-08-19T08:59:29.163Z,5.50
2022-08-19T09:01:56.767Z,5.38
2022-08-19T09:10:36.259Z,5.75
2022-08-19T09:13:52.922Z,5.20
2022-08-19T09:16:28.077Z,5.50
2022-08-19T09:19:06.464Z,5.18
2022-08-19T09:21:36.136Z,5.70
2022-08-19T09:24:09.237Z,5.32
2022-08-19T09:26:48.475Z,5.20
2022-08-19T09:34:23.425Z,5.80
2022-08-19T09:36:53.991Z,5.65
2022-08-19T09:39:22.557Z,5.20
2022-08-19T09:41:53.804Z,4.70
2022-08-19T09:44:21.828Z,5.60
2022-08-19T09:46:51.778Z,5.75
2022-08-19T09:49:22.575Z,5.57
2022-08-19T09:57:01.411Z,5.82
2022-08-19T09:59:34.029Z,5.15
2022-08-19T10:02:03.875Z,5.28
2022-08-19T10:05:00.032Z,5.40
2022-08-19T10:07:36.382Z,6.00
2022-08-19T10:10:12.612Z,5.18
2022-08-19T10:12:41.131Z,5.30
2022-08-19T10:20:20.578Z,5.50
2022-08-19T10:22:51.846Z,5.20
2022-08-19T10:25:21.088Z,4.90
2022-08-19T10:27:51.306Z,4.90
2022-08-19T10:30:21.429Z,4.82
2022-08-19T10:32:53.442Z,5.22
2022-08-19T10:35:21.799Z,5.72
2022-08-19T10:42:56.413Z,5.72
2022-08-19T10:45:29.438Z,5.50
2022-08-19T10:48:01.466Z,5.57
2022-08-19T10:50:50.058Z,5.15
2022-08-19T10:53:19.469Z,6.30
2022-08-19T10:56:11.193Z,5.32
2022-08-19T10:58:42.583Z,6.43
2022-08-19T11:06:21.775Z,5.57
2022-08-19T11:08:51.201Z,5.25
2022-08-19T11:11:22.449Z,5.63
2022-08-19T11:13:51.456Z,6.38
2022-08-19T11:16:22.732Z,5.72
2022-08-19T11:18:54.311Z,6.35
2022-08-19T11:21:35.262Z,6.20
2022-08-19T11:29:22.843Z,6.28
2022-08-19T11:31:51.732Z,6.07
2022-08-19T11:34:27.149Z,5.47
2022-08-19T11:37:00.137Z,5.88
2022-08-19T11:39:32.223Z,5.78
2022-08-19T11:42:03.537Z,5.85
2022-08-19T11:44:31.423Z,7.00
2022-08-19T11:54:51.312Z,5.95
2022-08-19T11:57:20.693Z,5.05
2022-08-19T11:59:53.508Z,5.10
2022-08-19T12:02:22.445Z,4.32
2022-08-19T12:04:51.365Z,4.10
2022-08-19T12:07:21.327Z,4.03
2022-08-19T12:09:50.676Z,3.38
2022-08-19T12:20:14.313Z,3.70
2022-08-19T12:22:42.131Z,3.80
2022-08-19T12:25:12.399Z,3.60
2022-08-19T12:27:42.781Z,3.97
2022-08-19T12:30:15.732Z,3.55
2022-08-19T12:32:43.261Z,4.25
2022-08-19T12:35:11.562Z,3.53
2022-08-19T12:42:52.632Z,3.83
2022-08-19T12:45:21.426Z,2.70
2022-08-19T12:47:55.003Z,3.28
2022-08-19T12:50:22.903Z,3.08
2022-08-19T12:52:52.117Z,3.10
2022-08-19T12:55:23.222Z,2.70
2022-08-19T12:57:51.648Z,2.78
2022-08-19T13:05:22.254Z,2.67
2022-08-19T13:07:55.789Z,2.67
2022-08-19T13:10:30.684Z,2.47
2022-08-19T13:13:00.469Z,2.80
2022-08-19T13:15:32.032Z,3.10
2022-08-19T13:18:01.576Z,3.50
2022-08-19T13:23:11.703Z,3.38
2022-08-19T13:25:41.195Z,4.20
2022-08-19T13:28:10.388Z,4.67
2022-08-19T13:31:00.400Z,4.50
2022-08-19T13:33:30.529Z,4.00
2022-08-19T13:36:01.506Z,5.10
2022-08-19T13:38:31.884Z,4.80
2022-08-19T13:46:15.723Z,5.30
2022-08-19T13:48:43.569Z,5.38
2022-08-19T13:51:11.674Z,5.65
2022-08-19T13:53:47.416Z,5.10
2022-08-19T13:56:24.149Z,5.57
2022-08-19T13:58:54.591Z,5.88
2022-08-19T14:01:24.443Z,5.25
2022-08-19T14:08:46.014Z,5.30
2022-08-19T14:11:15.074Z,5.90
2022-08-19T14:13:42.521Z,5.22
2022-08-19T14:16:14.500Z,5.50
2022-08-19T14:18:42.843Z,5.47
2022-08-19T14:21:23.365Z,4.93
2022-08-19T14:23:51.932Z,5.13
2022-08-19T14:31:29.013Z,5.18
2022-08-19T14:34:00.981Z,4.80
2022-08-19T14:36:30.385Z,5.03
2022-08-19T14:39:00.387Z,4.63
2022-08-19T14:41:31.909Z,4.70
2022-08-19T14:44:02.165Z,4.80
2022-08-19T14:46:31.672Z,4.90
2022-08-19T14:53:40.773Z,5.30
2022-08-19T14:56:14.828Z,4.47
2022-08-19T14:58:44.107Z,4.78
2022-08-19T15:01:13.287Z,4.40
2022-08-19T15:03:44.094Z,5.32
2022-08-19T15:06:12.821Z,4.97
2022-08-19T15:08:44.653Z,5.10
2022-08-19T15:16:22.814Z,4.75
2022-08-19T15:18:54.285Z,5.38
2022-08-19T15:21:26.824Z,5.40
2022-08-19T15:24:00.786Z,5.15
2022-08-19T15:26:33.074Z,5.05
2022-08-19T15:29:02.903Z,4.88
2022-08-19T15:31:36.382Z,5.45
2022-08-19T15:39:32.956Z,5.13
2022-08-19T15:42:02.836Z,5.60
2022-08-19T15:44:31.805Z,5.75
2022-08-19T15:47:01.406Z,5.70
2022-08-19T15:52:00.240Z,5.57
2022-08-19T16:00:20.679Z,5.45
2022-08-19T16:03:09.222Z,4.95
2022-08-19T16:05:55.730Z,4.75
2022-08-19T16:08:23.191Z,5.38
2022-08-19T16:10:53.558Z,5.50
2022-08-19T16:13:21.994Z,4.97
2022-08-19T16:15:56.947Z,5.10
2022-08-19T16:23:23.637Z,4.80
2022-08-19T16:25:51.972Z,5.88
2022-08-19T16:28:22.746Z,4.70
2022-08-19T16:30:52.286Z,4.47
2022-08-19T16:33:23.129Z,4.53
2022-08-19T16:35:56.061Z,4.30
2022-08-19T16:38:31.146Z,4.75
2022-08-19T16:45:44.075Z,4.30
2022-08-19T16:48:11.920Z,3.35
2022-08-19T16:50:49.901Z,3.88
2022-08-19T16:53:31.447Z,3.88
2022-08-19T16:56:01.462Z,3.70
2022-08-19T17:01:07.525Z,3.30
2022-08-19T17:08:35.210Z,3.03
2022-08-19T17:11:17.540Z,3.13
2022-08-19T17:13:52.029Z,2.80
2022-08-19T17:16:29.339Z,2.50
2022-08-19T17:19:01.498Z,2.63
2022-08-19T17:21:33.070Z,2.75
2022-08-19T17:24:03.714Z,2.45
2022-08-19T17:29:12.218Z,2.53
2022-08-19T17:31:42.373Z,2.40
2022-08-19T17:34:12.890Z,2.17
2022-08-19T17:36:42.151Z,2.70
2022-08-19T17:39:13.890Z,2.50
2022-08-19T17:41:44.542Z,2.33
2022-08-19T17:44:12.188Z,2.53
2022-08-19T17:46:42.028Z,2.47
2022-08-19T17:54:24.416Z,2.30
2022-08-19T17:57:02.212Z,2.50
2022-08-19T17:59:31.378Z,2.30
2022-08-19T18:02:01.881Z,2.55
2022-08-19T18:04:32.192Z,2.85
2022-08-19T18:07:04.653Z,2.47
2022-08-19T18:09:42.392Z,2.53
2022-08-19T18:14:55.273Z,2.60
2022-08-19T18:17:23.276Z,2.28
2022-08-19T18:19:52.203Z,2.55
2022-08-19T18:22:36.407Z,3.28
2022-08-19T18:25:24.024Z,2.40
2022-08-19T18:28:01.007Z,2.70
2022-08-19T18:30:35.454Z,2.60
2022-08-19T18:35:58.297Z,2.67
2022-08-19T18:38:50.579Z,2.42
2022-08-19T18:41:37.063Z,2.60
2022-08-19T18:44:23.154Z,2.40
2022-08-19T18:47:15.852Z,2.55
2022-08-19T18:49:43.885Z,2.38
2022-08-19T18:52:12.349Z,2.72
2022-08-19T18:59:15.961Z,2.67
2022-08-19T19:01:51.738Z,2.60
2022-08-19T19:04:24.126Z,3.53
2022-08-19T19:06:53.146Z,2.67
2022-08-19T19:09:27.699Z,2.78
2022-08-19T19:11:58.664Z,2.75
2022-08-19T19:14:50.982Z,2.53
2022-08-19T19:20:07.810Z,2.97
2022-08-19T19:22:35.501Z,2.65
2022-08-19T19:25:02.916Z,2.85
2022-08-19T19:27:32.121Z,2.55
2022-08-19T19:30:01.423Z,2.40
2022-08-19T19:32:39.273Z,2.80
2022-08-19T19:35:12.424Z,2.90
2022-08-19T19:42:51.816Z,2.47
2022-08-19T19:45:21.448Z,2.70
2022-08-19T19:47:51.498Z,2.75
2022-08-19T19:50:21.666Z,2.55
2022-08-19T19:52:51.210Z,2.92
2022-08-19T19:55:20.565Z,2.97
2022-08-19T19:57:55.165Z,2.60
2022-08-19T20:05:03.088Z,2.70
2022-08-19T20:08:04.912Z,2.55
2022-08-19T20:10:34.871Z,2.65
2022-08-19T20:13:03.444Z,3.03
2022-08-19T20:15:32.688Z,2.85
2022-08-19T20:18:03.955Z,3.67
2022-08-19T20:20:32.594Z,3.15
2022-08-19T20:25:47.668Z,2.70
2022-08-19T20:28:15.817Z,2.67
2022-08-19T20:30:46.627Z,2.65
2022-08-19T20:33:17.062Z,2.65
2022-08-19T20:35:47.788Z,2.33
2022-08-19T20:38:15.628Z,2.40
2022-08-19T20:40:44.522Z,2.38
2022-08-19T20:50:12.781Z,2.78
2022-08-19T20:52:43.790Z,2.40
2022-08-19T20:55:21.993Z,2.60
2022-08-19T20:57:53.490Z,3.10
2022-08-19T21:00:22.719Z,2.83
2022-08-19T21:02:52.063Z,2.42
2022-08-19T21:05:21.689Z,2.33
2022-08-19T21:12:53.418Z,2.30
2022-08-19T21:15:24.532Z,2.40
2022-08-19T21:17:52.279Z,2.70
2022-08-19T21:20:21.788Z,2.53
2022-08-19T21:22:52.425Z,2.50
2022-08-19T21:25:22.753Z,2.20
2022-08-19T21:27:54.466Z,2.40
2022-08-19T21:35:31.807Z,2.20
2022-08-19T21:38:01.493Z,2.42
2022-08-19T21:40:31.074Z,2.22
2022-08-19T21:42:59.049Z,2.35
2022-08-19T21:45:31.120Z,2.15
2022-08-19T21:47:58.653Z,1.63
2022-08-19T21:50:32.370Z,1.70
2022-08-19T21:57:01.849Z,1.95
2022-08-19T21:59:32.108Z,1.90
2022-08-19T22:02:15.774Z,1.90
2022-08-19T22:04:52.059Z,2.08
2022-08-19T22:07:22.210Z,2.85
2022-08-19T22:12:31.430Z,1.70
2022-08-19T22:17:38.219Z,1.83
2022-08-19T22:20:12.196Z,2.35
2022-08-19T22:22:51.906Z,1.88
2022-08-19T22:25:33.046Z,1.73
2022-08-19T22:28:04.374Z,1.90
2022-08-19T22:30:34.397Z,1.60
2022-08-19T22:33:07.915Z,1.50
2022-08-19T22:39:12.756Z,2.13
2022-08-19T22:41:42.202Z,3.00
2022-08-19T22:44:11.938Z,2.92
2022-08-19T22:46:41.216Z,1.92
2022-08-19T22:49:11.371Z,2.72
2022-08-19T22:51:57.391Z,1.75
2022-08-19T22:54:24.977Z,2.17
2022-08-19T22:56:53.276Z,1.90
2022-08-19T23:04:28.740Z,2.17
2022-08-19T23:06:58.002Z,1.98
2022-08-19T23:09:25.355Z,1.90
2022-08-19T23:12:03.171Z,1.70
2022-08-19T23:14:34.211Z,2.00
2022-08-19T23:17:03.961Z,1.88
2022-08-19T23:19:33.481Z,1.88
2022-08-19T23:22:03.126Z,1.75
2022-08-19T23:30:02.025Z,1.70
2022-08-19T23:32:34.932Z,1.25
2022-08-19T23:35:03.062Z,1.20
2022-08-19T23:37:33.317Z,1.45
2022-08-19T23:40:03.410Z,1.60
2022-08-19T23:42:33.179Z,1.20
2022-08-19T23:45:11.761Z,1.27
2022-08-19T23:52:58.958Z,1.48
2022-08-19T23:55:35.873Z,1.60
2022-08-19T23:58:04.079Z,1.70
